Waxhaw, Mississippi
Current Conditions -  °F | °C
As of 11:55 AM on Friday 24 Oct 2014 (Local Time) from KRNV Reporting Station
Clear Clear  
Wind Chill: 65°   Ceiling: Unl
Heat Index: 65°   Visibility: 10mi
Dew Point: 47°   Wind: 6mph
Humidity: 51%   Direction: 330°NNW
Pressure: 30.16"   Gusts: NA
Location:  33.9429°N, 90.9264°W
Report Text: KRNV 241655Z AUTO 33005KT 10SM CLR 19/08 A3016 RMK AO2 T01850082
Loading
Personal Weather Stations






























Interactive Weather Map
Tropical Storm Tracking
New forecast layout! Learn more

10-Day Weather Forecast

Advertisements
Track Severe Weather on mobile